Time;durP1;ratioP1;P1;durP2;ratioP2;P2;SDS_P1;SDS_P2;PMS_P1;PMS_P2;Temp;Humidity;BMP_temperature;BMP_pressure;BME280_temperature;BME280_humidity;BME280_pressure;Samples;Min_cycle;Max_cycle;Signal;HPM_P1;HPM_P2
2022/07/05 00:01:52;;;;;;;5.10;4.60;;;15.00;99.90;;;;;;5037632;28;20973;-61
2022/07/05 00:04:19;;;;;;;5.70;5.20;;;15.00;99.90;;;;;;5037591;28;20501;-61
2022/07/05 00:09:35;;;;;;;6.70;4.57;;;14.80;99.90;;;;;;5037078;28;20434;-61
2022/07/05 00:12:05;;;;;;;4.80;4.40;;;14.70;99.90;;;;;;5036651;28;20516;-61
2022/07/05 00:14:35;;;;;;;6.03;4.57;;;14.70;99.90;;;;;;5036677;28;20524;-61
2022/07/05 00:17:03;;;;;;;8.00;4.57;;;14.60;99.90;;;;;;5037486;28;20581;-61
2022/07/05 00:19:33;;;;;;;5.00;4.50;;;14.70;99.90;;;;;;5037532;28;20467;-61
2022/07/05 00:22:00;;;;;;;5.67;5.00;;;14.70;99.90;;;;;;5037132;28;20820;-61
2022/07/05 00:24:28;;;;;;;5.23;4.60;;;14.60;99.90;;;;;;5037156;28;20501;-61
2022/07/05 00:27:04;;;;;;;7.47;4.67;;;14.70;99.90;;;;;;5036891;28;20463;-61
2022/07/05 00:29:31;;;;;;;6.10;4.97;;;14.60;99.90;;;;;;5036923;28;20465;-61
2022/07/05 00:31:59;;;;;;;7.63;4.50;;;14.60;99.90;;;;;;5017830;28;20546;-61
2022/07/05 00:34:29;;;;;;;5.03;4.53;;;14.60;99.90;;;;;;5017249;28;20463;-60
2022/07/05 00:36:56;;;;;;;8.90;4.90;;;14.50;99.90;;;;;;5017135;28;20468;-61
2022/07/05 00:39:23;;;;;;;5.33;4.53;;;14.50;99.90;;;;;;5016924;28;20522;-61
2022/07/05 00:41:52;;;;;;;5.53;4.50;;;14.40;99.90;;;;;;5017167;28;20968;-59
2022/07/05 00:44:31;;;;;;;6.20;5.17;;;14.40;99.90;;;;;;5017557;28;20499;-61
2022/07/05 00:46:59;;;;;;;5.40;4.90;;;14.50;99.90;;;;;;5016764;28;20463;-61
2022/07/05 00:49:26;;;;;;;6.40;5.37;;;14.40;99.90;;;;;;5017243;28;20467;-61
2022/07/05 00:51:54;;;;;;;7.10;5.10;;;14.40;99.90;;;;;;5017151;28;20844;-61
2022/07/05 00:54:21;;;;;;;10.83;5.63;;;14.40;99.90;;;;;;5017240;28;20960;-61
2022/07/05 00:56:49;;;;;;;5.30;4.80;;;14.40;99.90;;;;;;5027921;28;20488;-61
2022/07/05 00:59:19;;;;;;;7.17;5.27;;;14.40;99.90;;;;;;5036238;28;20553;-61
2022/07/05 01:01:49;;;;;;;5.93;5.33;;;14.40;99.90;;;;;;5036590;28;20509;-61
2022/07/05 01:04:20;;;;;;;5.80;5.17;;;14.30;99.90;;;;;;5036801;28;20949;-61
2022/07/05 01:06:49;;;;;;;6.67;5.20;;;14.30;99.90;;;;;;5034522;28;20545;-61
2022/07/05 01:09:17;;;;;;;6.37;5.20;;;14.30;99.90;;;;;;5038156;28;20762;-61
2022/07/05 01:11:45;;;;;;;9.33;5.60;;;14.20;99.90;;;;;;5040172;28;20502;-61
2022/07/05 01:14:14;;;;;;;6.30;5.70;;;14.10;99.90;;;;;;5040958;28;20459;-61
2022/07/05 01:16:43;;;;;;;5.07;4.57;;;14.10;99.90;;;;;;5040757;28;20490;-61
2022/07/05 01:19:14;;;;;;;5.67;5.03;;;14.00;99.90;;;;;;5040771;28;20520;-61
2022/07/05 01:21:44;;;;;;;7.43;5.33;;;14.00;99.90;;;;;;5040664;28;20438;-61
2022/07/05 01:24:14;;;;;;;7.60;5.37;;;13.90;99.90;;;;;;5040682;28;20491;-61
2022/07/05 01:26:47;;;;;;;6.60;5.70;;;13.90;99.90;;;;;;5040313;28;20489;-61
2022/07/05 01:29:14;;;;;;;6.87;4.90;;;13.90;99.90;;;;;;5040608;28;20463;-61
2022/07/05 01:31:43;;;;;;;6.70;5.50;;;13.90;99.90;;;;;;5039790;28;20522;-61
2022/07/05 01:34:10;;;;;;;6.90;5.63;;;13.90;99.90;;;;;;5040480;28;20463;-61
2022/07/05 01:36:38;;;;;;;6.60;5.20;;;13.90;99.90;;;;;;5040723;28;20562;-61
2022/07/05 01:39:07;;;;;;;7.03;6.00;;;13.90;99.90;;;;;;5039977;28;20462;-60
2022/07/05 01:41:39;;;;;;;9.93;6.10;;;14.00;99.90;;;;;;5038796;28;20496;-61
2022/07/05 01:44:06;;;;;;;5.93;5.43;;;14.00;99.90;;;;;;5040122;28;20588;-61
2022/07/05 01:46:37;;;;;;;6.17;5.57;;;14.00;99.90;;;;;;5039471;28;20473;-61
2022/07/05 01:49:09;;;;;;;5.77;5.23;;;13.90;99.90;;;;;;5040005;28;20471;-59
2022/07/05 01:51:44;;;;;;;6.70;6.00;;;13.90;99.90;;;;;;5040022;28;20849;-61
2022/07/05 01:54:12;;;;;;;6.93;6.27;;;13.80;99.90;;;;;;5038468;28;20500;-61
2022/07/05 01:56:41;;;;;;;9.03;7.03;;;13.80;99.90;;;;;;5039921;28;20487;-61
2022/07/05 01:59:09;;;;;;;8.63;5.90;;;13.80;99.90;;;;;;5039780;28;20485;-61
2022/07/05 02:01:37;;;;;;;7.80;5.43;;;13.80;99.90;;;;;;5039552;28;20561;-61
2022/07/05 02:04:07;;;;;;;6.30;5.33;;;13.80;99.90;;;;;;5039907;28;20499;-61
2022/07/05 02:06:37;;;;;;;6.70;6.00;;;13.80;99.90;;;;;;5039913;28;20444;-61
2022/07/05 02:09:05;;;;;;;7.00;6.00;;;13.70;99.90;;;;;;5039677;28;20565;-61
2022/07/05 02:11:32;;;;;;;6.87;5.50;;;13.70;99.90;;;;;;5039727;28;20463;-61
2022/07/05 02:14:02;;;;;;;6.90;5.47;;;13.80;99.90;;;;;;5040236;28;20567;-61
2022/07/05 02:16:30;;;;;;;7.83;6.13;;;13.80;99.90;;;;;;5039984;28;20896;-62
2022/07/05 02:18:58;;;;;;;6.23;5.47;;;13.80;99.90;;;;;;5039614;28;20770;-62
2022/07/05 02:21:26;;;;;;;7.47;5.57;;;13.90;99.90;;;;;;5038377;28;21037;-62
2022/07/05 02:23:53;;;;;;;6.63;5.10;;;13.80;99.90;;;;;;5039136;28;20494;-62
2022/07/05 02:26:23;;;;;;;7.40;5.87;;;13.90;99.90;;;;;;5039233;28;20494;-62
2022/07/05 02:28:51;;;;;;;7.47;5.43;;;13.90;99.90;;;;;;5039680;28;20448;-62
2022/07/05 02:31:20;;;;;;;7.17;5.53;;;13.90;99.90;;;;;;5038968;28;20485;-62
2022/07/05 02:33:48;;;;;;;6.30;5.70;;;13.90;99.90;;;;;;5039291;28;20553;-62
2022/07/05 02:36:15;;;;;;;7.10;6.13;;;13.80;99.90;;;;;;5038922;28;20463;-62
2022/07/05 02:38:43;;;;;;;5.97;5.43;;;13.70;99.90;;;;;;5038910;28;20466;-62
2022/07/05 02:41:11;;;;;;;9.00;6.73;;;13.60;99.90;;;;;;5038691;28;20469;-62
2022/07/05 02:43:40;;;;;;;7.20;6.40;;;13.60;99.90;;;;;;5038847;28;20539;-61
2022/07/05 02:46:09;;;;;;;6.93;5.67;;;13.60;99.90;;;;;;5039046;28;20506;-62
2022/07/05 02:48:38;;;;;;;5.90;5.40;;;13.70;99.90;;;;;;5038306;28;20565;-62
2022/07/05 02:51:06;;;;;;;5.93;5.33;;;13.70;99.90;;;;;;5038703;28;20470;-62
2022/07/05 02:53:36;;;;;;;6.80;5.20;;;13.70;99.90;;;;;;5038616;28;20517;-62
2022/07/05 02:56:05;;;;;;;5.47;4.97;;;13.70;99.90;;;;;;5038716;28;20577;-62
2022/07/05 02:58:32;;;;;;;7.20;5.30;;;13.70;99.90;;;;;;5039297;28;20471;-62
2022/07/05 03:00:59;;;;;;;7.13;4.40;;;13.60;99.90;;;;;;5038015;28;20469;-61
2022/07/05 03:03:26;;;;;;;5.57;4.87;;;13.60;99.90;;;;;;5038585;28;20459;-62
2022/07/05 03:05:56;;;;;;;9.67;5.00;;;13.60;99.90;;;;;;5038773;28;20578;-62
2022/07/05 03:08:23;;;;;;;5.50;5.00;;;13.50;99.90;;;;;;5038926;28;20534;-61
2022/07/05 03:10:50;;;;;;;7.40;5.27;;;13.50;99.90;;;;;;5038060;28;20763;-62
2022/07/05 03:13:17;;;;;;;5.30;4.80;;;13.50;99.90;;;;;;5038595;28;20506;-62
2022/07/05 03:15:48;;;;;;;5.97;5.47;;;13.40;99.90;;;;;;5037966;28;20464;-62
2022/07/05 03:18:17;;;;;;;6.77;5.40;;;13.40;99.90;;;;;;5038745;28;20463;-62
2022/07/05 03:20:45;;;;;;;5.83;5.13;;;13.40;1.00;;;;;;5037961;28;20983;-62
2022/07/05 03:23:16;;;;;;;6.63;6.03;;;13.50;1.00;;;;;;5038342;28;20730;-62
2022/07/05 03:25:43;;;;;;;6.23;5.63;;;13.40;1.00;;;;;;5038183;28;20556;-61
2022/07/05 03:28:10;;;;;;;5.50;4.90;;;13.50;1.00;;;;;;5038460;28;20530;-61
2022/07/05 03:30:41;;;;;;;5.00;4.33;;;13.50;99.90;;;;;;5038077;28;20993;-62
2022/07/05 03:33:08;;;;;;;5.73;5.00;;;13.50;99.90;;;;;;5037581;28;20463;-62
2022/07/05 03:35:37;;;;;;;6.80;4.97;;;13.40;99.90;;;;;;5037954;28;20947;-62
2022/07/05 03:38:09;;;;;;;7.03;5.13;;;13.40;99.90;;;;;;5015487;28;20946;-62
2022/07/05 03:40:37;;;;;;;5.00;4.50;;;13.40;99.90;;;;;;5017915;28;20539;-62
2022/07/05 03:43:04;;;;;;;5.17;4.63;;;13.40;99.90;;;;;;5015568;28;20468;-62
2022/07/05 03:45:34;;;;;;;8.50;4.70;;;13.40;99.90;;;;;;5030744;28;20504;-62
2022/07/05 03:48:03;;;;;;;5.07;4.57;;;13.40;99.90;;;;;;5029602;28;20477;-62
2022/07/05 03:50:31;;;;;;;5.80;5.20;;;13.30;1.00;;;;;;5038190;28;20474;-62
2022/07/05 03:52:58;;;;;;;7.07;5.00;;;13.30;1.00;;;;;;5033911;28;20543;-61
2022/07/05 03:55:27;;;;;;;5.83;4.83;;;13.30;1.00;;;;;;5029479;28;20528;-61
2022/07/05 03:57:56;;;;;;;6.07;5.50;;;13.40;1.00;;;;;;5033893;28;20570;-61
2022/07/05 04:00:26;;;;;;;5.23;4.60;;;13.50;1.00;;;;;;5034667;28;20467;-62
2022/07/05 04:02:58;;;;;;;7.10;5.27;;;13.60;1.00;;;;;;5014212;28;20478;-62
2022/07/05 04:05:25;;;;;;;5.43;4.93;;;13.70;1.00;;;;;;5025494;28;20943;-62
2022/07/05 04:07:54;;;;;;;6.20;5.60;;;13.80;1.00;;;;;;5019828;28;20476;-61
2022/07/05 04:10:22;;;;;;;5.40;4.90;;;13.90;99.90;;;;;;5014442;28;20523;-62
2022/07/05 04:12:54;;;;;;;5.27;4.70;;;13.90;99.90;;;;;;5017663;28;20574;-62
2022/07/05 04:15:24;;;;;;;9.03;5.27;;;13.90;99.90;;;;;;5017232;28;20558;-62
2022/07/05 04:17:55;;;;;;;8.60;5.57;;;14.00;99.90;;;;;;5017630;28;20460;-62
2022/07/05 04:20:24;;;;;;;6.30;5.70;;;13.90;99.90;;;;;;5019810;28;20456;-62
2022/07/05 04:22:52;;;;;;;5.40;4.90;;;13.90;99.90;;;;;;5032916;28;20502;-62
2022/07/05 04:25:28;;;;;;;9.43;6.40;;;14.00;99.90;;;;;;5015814;28;20484;-62
2022/07/05 04:27:56;;;;;;;7.20;5.40;;;14.00;99.90;;;;;;5015052;28;20493;-61
2022/07/05 04:30:28;;;;;;;5.83;5.33;;;14.10;99.90;;;;;;5025422;28;20471;-62
2022/07/05 04:32:55;;;;;;;6.07;5.47;;;14.00;99.90;;;;;;5028656;28;20566;-61
2022/07/05 04:35:30;;;;;;;5.83;5.00;;;13.90;99.90;;;;;;5023898;28;20915;-62
2022/07/05 04:37:57;;;;;;;5.80;5.20;;;14.00;99.90;;;;;;5020845;28;20930;-62
2022/07/05 04:40:24;;;;;;;7.47;5.50;;;14.00;99.90;;;;;;5024591;28;21153;-61
2022/07/05 04:42:54;;;;;;;5.67;5.17;;;14.00;99.90;;;;;;4996639;28;20552;-62
2022/07/05 04:45:23;;;;;;;6.00;5.40;;;14.00;99.90;;;;;;5002304;28;20495;-62
2022/07/05 04:47:52;;;;;;;7.23;6.47;;;14.00;99.90;;;;;;5027690;28;20476;-62
2022/07/05 04:50:19;;;;;;;5.60;5.10;;;14.10;99.90;;;;;;5034728;28;20581;-62
2022/07/05 04:52:47;;;;;;;5.93;4.97;;;14.10;99.90;;;;;;5034312;28;20562;-62
2022/07/05 04:55:14;;;;;;;6.00;5.50;;;14.20;99.90;;;;;;5029528;28;20815;-62
2022/07/05 04:57:43;;;;;;;9.47;6.20;;;14.20;99.90;;;;;;5027172;28;20509;-62
2022/07/05 05:00:12;;;;;;;5.97;5.40;;;14.20;99.90;;;;;;5019099;28;20499;-62
2022/07/05 05:02:40;;;;;;;8.37;5.10;;;14.30;99.90;;;;;;5014960;28;20507;-62
2022/07/05 05:05:09;;;;;;;8.70;6.07;;;14.40;99.90;;;;;;4996389;28;20504;-62
2022/07/05 05:07:39;;;;;;;7.47;5.57;;;14.40;99.90;;;;;;4996057;28;20471;-62
2022/07/05 05:10:07;;;;;;;6.00;5.50;;;14.40;99.90;;;;;;4996549;28;20469;-62
2022/07/05 05:12:35;;;;;;;5.97;5.47;;;14.50;99.90;;;;;;4997600;28;20465;-62
2022/07/05 05:15:03;;;;;;;6.43;5.50;;;14.50;99.90;;;;;;4997399;28;20471;-62
2022/07/05 05:17:37;;;;;;;7.50;5.50;;;14.60;99.90;;;;;;4997626;28;20782;-62
2022/07/05 05:20:07;;;;;;;6.60;5.80;;;14.70;99.90;;;;;;4997500;28;20491;-62
2022/07/05 05:22:35;;;;;;;8.40;6.03;;;14.70;99.90;;;;;;4997100;28;20447;-62
2022/07/05 05:25:05;;;;;;;6.47;5.80;;;14.80;99.90;;;;;;4997128;28;20563;-62
2022/07/05 05:27:32;;;;;;;8.30;5.90;;;14.90;99.90;;;;;;4997256;28;20465;-62
2022/07/05 05:30:01;;;;;;;7.67;6.37;;;15.00;99.90;;;;;;4996691;28;20786;-62
2022/07/05 05:32:28;;;;;;;6.73;6.00;;;15.10;99.90;;;;;;4997133;28;20890;-62
2022/07/05 05:34:55;;;;;;;9.43;6.57;;;15.40;99.90;;;;;;4997227;28;20561;-63
2022/07/05 05:37:26;;;;;;;6.17;5.57;;;15.60;99.90;;;;;;4996146;28;20464;-63
2022/07/05 05:39:56;;;;;;;7.53;5.53;;;15.70;99.90;;;;;;4996046;28;20927;-62
2022/07/05 05:42:24;;;;;;;6.40;5.77;;;15.80;99.90;;;;;;4995751;28;20468;-62
2022/07/05 05:44:54;;;;;;;7.20;5.77;;;15.90;99.90;;;;;;4996779;28;20468;-62
2022/07/05 05:47:23;;;;;;;10.67;6.00;;;16.10;99.90;;;;;;4997011;28;20765;-62
2022/07/05 05:49:52;;;;;;;9.70;6.37;;;16.40;99.90;;;;;;4997182;28;20464;-62
2022/07/05 05:52:19;;;;;;;8.07;4.87;;;16.60;99.90;;;;;;4997393;28;20832;-62
2022/07/05 05:54:47;;;;;;;7.47;6.50;;;16.80;99.90;;;;;;4997310;28;20547;-62
2022/07/05 05:57:17;;;;;;;6.97;5.10;;;17.00;99.90;;;;;;4999691;28;20595;-62
2022/07/05 05:59:48;;;;;;;5.93;5.40;;;17.10;99.90;;;;;;5001163;28;20461;-62
2022/07/05 06:02:15;;;;;;;10.30;5.87;;;17.20;99.90;;;;;;5003404;28;20472;-63
2022/07/05 06:04:47;;;;;;;6.50;5.90;;;17.40;99.90;;;;;;5013904;28;20937;-63
2022/07/05 06:07:15;;;;;;;9.90;5.30;;;17.80;99.90;;;;;;5019895;28;20464;-62
2022/07/05 06:09:43;;;;;;;6.23;5.20;;;18.40;99.90;;;;;;5018026;28;20494;-62
2022/07/05 06:12:11;;;;;;;6.50;5.37;;;18.80;99.90;;;;;;5019388;28;20468;-62
2022/07/05 06:14:39;;;;;;;7.40;5.80;;;19.10;99.90;;;;;;5020073;28;20434;-62
2022/07/05 06:17:07;;;;;;;13.33;5.90;;;19.50;99.90;;;;;;5019602;28;20960;-62
2022/07/05 06:19:34;;;;;;;7.37;4.70;;;19.60;99.90;;;;;;5019814;28;20559;-62
2022/07/05 06:22:07;;;;;;;6.93;4.90;;;19.90;99.90;;;;;;5019647;28;20533;-62
2022/07/05 06:24:35;;;;;;;6.27;4.53;;;19.90;99.90;;;;;;5018566;28;20550;-63
2022/07/05 06:27:02;;;;;;;5.03;4.27;;;20.20;99.90;;;;;;5019366;28;20907;-63
2022/07/05 06:29:29;;;;;;;5.20;4.70;;;20.30;99.90;;;;;;5019774;28;21015;-63
2022/07/05 06:32:00;;;;;;;8.50;4.57;;;20.70;99.90;;;;;;5017683;28;20781;-63
2022/07/05 06:34:30;;;;;;;7.13;4.50;;;21.10;99.90;;;;;;5018366;28;20510;-63
2022/07/05 06:36:57;;;;;;;5.30;4.37;;;21.40;99.90;;;;;;5018324;28;20455;-63
2022/07/05 06:39:24;;;;;;;6.00;4.60;;;21.60;99.90;;;;;;5018274;28;20449;-63
2022/07/05 06:41:54;;;;;;;10.50;4.60;;;21.80;99.90;;;;;;5018033;28;20956;-63
2022/07/05 06:44:24;;;;;;;7.17;4.43;;;21.40;99.90;;;;;;5018418;28;20470;-63
2022/07/05 06:46:51;;;;;;;5.43;4.00;;;21.70;99.90;;;;;;5037179;28;20923;-63
2022/07/05 06:49:22;;;;;;;4.80;3.80;;;22.00;99.90;;;;;;5037363;28;20473;-63
2022/07/05 06:51:49;;;;;;;4.30;3.27;;;21.10;99.90;;;;;;5037246;28;20557;-63
2022/07/05 06:54:16;;;;;;;3.37;2.63;;;21.30;99.90;;;;;;5038278;28;20510;-63
2022/07/05 06:56:47;;;;;;;3.17;2.87;;;21.50;99.90;;;;;;5037450;28;20479;-63
2022/07/05 06:59:20;;;;;;;3.30;3.00;;;22.10;99.90;;;;;;5038558;28;20467;-63
2022/07/05 07:01:48;;;;;;;3.20;3.00;;;22.30;99.90;;;;;;5038356;28;20565;-63
2022/07/05 07:04:21;;;;;;;3.50;2.70;;;22.00;99.90;;;;;;5037162;28;20455;-63
2022/07/05 07:06:48;;;;;;;3.40;3.10;;;21.50;99.90;;;;;;5035437;28;20530;-62
2022/07/05 07:09:18;;;;;;;4.77;2.90;;;21.40;99.90;;;;;;5035635;28;20463;-63
2022/07/05 07:11:45;;;;;;;3.37;2.90;;;22.30;99.90;;;;;;5036227;28;20558;-64
2022/07/05 07:14:13;;;;;;;5.20;3.80;;;22.40;99.90;;;;;;5036605;28;20463;-63
2022/07/05 07:16:42;;;;;;;3.53;2.80;;;21.70;99.90;;;;;;5037634;28;20455;-63
2022/07/05 07:19:16;;;;;;;3.70;3.37;;;21.70;99.90;;;;;;5038187;28;20459;-63
2022/07/05 07:21:45;;;;;;;3.53;2.67;;;21.30;99.90;;;;;;5038368;28;20558;-63
2022/07/05 07:24:22;;;;;;;3.83;3.37;;;21.40;99.90;;;;;;5038969;28;20469;-63
2022/07/05 07:27:06;;;;;;;3.23;2.93;;;22.10;99.90;;;;;;5037633;28;20501;-63
2022/07/05 07:29:35;;;;;;;2.70;2.50;;;22.50;99.90;;;;;;5020301;28;20482;-63
2022/07/05 07:32:06;;;;;;;3.53;2.90;;;22.10;99.90;;;;;;5038085;28;20899;-63
2022/07/05 07:34:34;;;;;;;3.57;3.27;;;23.10;99.90;;;;;;5037657;28;20901;-63
2022/07/05 07:37:04;;;;;;;3.10;2.83;;;23.90;99.90;;;;;;5036642;28;20546;-63
2022/07/05 07:39:34;;;;;;;5.67;3.60;;;24.20;99.90;;;;;;5038269;28;20461;-64
2022/07/05 07:42:15;;;;;;;3.47;3.17;;;23.30;99.90;;;;;;5037153;28;20826;-63
2022/07/05 07:44:44;;;;;;;3.70;3.40;;;22.70;99.90;;;;;;5037856;28;20469;-63
2022/07/05 07:47:19;;;;;;;3.10;2.90;;;22.40;99.90;;;;;;5023576;28;20539;-62
2022/07/05 07:49:48;;;;;;;3.93;3.07;;;23.60;99.90;;;;;;5017715;28;20498;-63
2022/07/05 07:52:17;;;;;;;2.53;2.33;;;24.40;99.90;;;;;;5017757;28;20495;-63
2022/07/05 07:54:45;;;;;;;3.23;2.67;;;24.60;99.90;;;;;;5018186;28;20915;-63
2022/07/05 07:57:15;;;;;;;3.57;2.53;;;25.00;99.90;;;;;;5017391;28;20495;-63
2022/07/05 07:59:48;;;;;;;2.63;2.43;;;25.40;99.90;;;;;;5018318;28;20734;-63
2022/07/05 08:02:17;;;;;;;4.00;3.07;;;25.40;99.90;;;;;;5017794;28;20495;-63
2022/07/05 08:04:44;;;;;;;3.00;2.80;;;25.40;99.90;;;;;;5017423;28;20519;-63
2022/07/05 08:07:11;;;;;;;4.00;2.90;;;25.30;99.90;;;;;;5017388;28;20586;-63
2022/07/05 08:09:40;;;;;;;7.83;2.83;;;24.50;99.90;;;;;;5017614;28;20511;-63
2022/07/05 08:12:08;;;;;;;3.07;2.70;;;24.20;99.90;;;;;;5013129;28;20979;-63
2022/07/05 08:14:35;;;;;;;2.90;2.70;;;24.30;99.90;;;;;;5012420;28;20457;-63
2022/07/05 08:17:07;;;;;;;2.90;2.70;;;24.60;99.90;;;;;;5014528;28;20455;-63
2022/07/05 08:22:21;;;;;;;3.03;2.30;;;25.50;99.90;;;;;;4955007;29;20474;-63
2022/07/05 08:24:51;;;;;;;3.03;2.83;;;25.50;99.90;;;;;;4954949;29;20858;-63
2022/07/05 08:27:18;;;;;;;3.00;2.30;;;25.60;99.90;;;;;;4994059;28;20554;-63
2022/07/05 08:29:49;;;;;;;3.70;3.07;;;25.50;99.90;;;;;;5017486;28;20650;-63
2022/07/05 08:32:18;;;;;;;3.10;2.90;;;25.80;99.90;;;;;;5016367;28;20464;-63
2022/07/05 08:34:48;;;;;;;2.50;2.30;;;26.30;99.90;;;;;;5015610;28;20559;-64
2022/07/05 08:37:16;;;;;;;3.03;2.73;;;26.60;99.90;;;;;;5017191;28;20482;-63
2022/07/05 08:39:43;;;;;;;3.30;3.00;;;27.40;99.90;;;;;;5017505;28;20892;-63
2022/07/05 08:42:14;;;;;;;3.13;2.83;;;26.30;99.90;;;;;;5017632;28;20468;-63
2022/07/05 08:44:44;;;;;;;3.70;2.60;;;24.60;99.90;;;;;;5016875;28;20442;-63
2022/07/05 08:47:18;;;;;;;3.40;3.20;;;23.70;99.90;;;;;;5017297;28;20496;-63
2022/07/05 08:49:48;;;;;;;3.50;2.70;;;23.80;99.90;;;;;;5017223;28;20464;-63
2022/07/05 08:52:19;;;;;;;4.27;2.97;;;23.30;99.90;;;;;;5017827;28;20460;-63
2022/07/05 08:54:48;;;;;;;2.93;2.70;;;22.40;99.90;;;;;;5016820;28;20464;-63
2022/07/05 08:57:16;;;;;;;3.23;2.97;;;21.80;99.90;;;;;;5016696;28;21011;-63
2022/07/05 08:59:44;;;;;;;3.80;3.40;;;22.50;99.90;;;;;;5016656;28;20566;-63
2022/07/05 09:02:17;;;;;;;4.10;3.23;;;22.50;99.90;;;;;;5016855;28;20467;-63
2022/07/05 09:04:46;;;;;;;3.97;3.57;;;22.80;99.90;;;;;;5016487;28;20474;-63
2022/07/05 09:07:24;;;;;;;3.73;3.30;;;22.60;99.90;;;;;;5016768;28;20502;-63
2022/07/05 09:09:53;;;;;;;3.20;3.00;;;22.40;99.90;;;;;;5017505;28;20923;-63
2022/07/05 09:12:24;;;;;;;3.40;3.10;;;22.40;99.90;;;;;;5015803;28;20471;-63
2022/07/05 09:14:52;;;;;;;4.63;3.20;;;23.40;99.90;;;;;;5016083;28;20435;-63
2022/07/05 09:17:20;;;;;;;3.23;2.80;;;23.60;99.90;;;;;;5016457;28;20464;-62
2022/07/05 09:20:10;;;;;;;3.50;3.20;;;23.60;99.90;;;;;;5017170;28;20463;-63
2022/07/05 09:22:48;;;;;;;7.20;2.40;;;23.80;99.90;;;;;;5017781;28;20464;-63
2022/07/05 09:25:21;;;;;;;3.90;3.47;;;23.60;99.90;;;;;;5015097;28;20593;-63
2022/07/05 09:27:57;;;;;;;4.07;3.43;;;24.50;99.90;;;;;;5013341;28;20491;-64
2022/07/05 09:30:37;;;;;;;5.27;3.70;;;24.30;99.90;;;;;;5017119;28;20515;-63
2022/07/05 09:33:10;;;;;;;3.37;2.63;;;24.70;99.90;;;;;;5020293;28;20522;-62
2022/07/05 09:35:39;;;;;;;3.80;3.47;;;24.20;99.90;;;;;;5020287;28;20459;-63
2022/07/05 09:38:08;;;;;;;4.83;4.33;;;23.70;99.90;;;;;;5017429;28;20767;-63
2022/07/05 09:40:48;;;;;;;3.90;3.50;;;22.90;99.90;;;;;;5021189;28;20566;-63
2022/07/05 09:43:18;;;;;;;5.37;4.10;;;23.40;99.90;;;;;;5019858;28;20470;-63
2022/07/05 09:45:53;;;;;;;5.23;3.13;;;23.00;99.90;;;;;;5019884;28;20526;-63
2022/07/05 09:48:29;;;;;;;3.83;3.50;;;23.20;99.90;;;;;;5019104;28;20475;-63
2022/07/05 09:51:07;;;;;;;6.17;3.60;;;22.80;99.90;;;;;;5025105;28;20467;-63
2022/07/05 09:53:46;;;;;;;4.20;3.80;;;22.50;99.90;;;;;;5020924;28;20546;-63
2022/07/05 09:56:14;;;;;;;6.23;4.27;;;22.80;99.90;;;;;;5020465;28;20791;-63
2022/07/05 09:58:49;;;;;;;3.97;3.57;;;23.20;99.90;;;;;;5020037;28;20463;-63
2022/07/05 10:01:31;;;;;;;4.70;3.97;;;24.10;99.90;;;;;;5020131;28;20498;-63
2022/07/05 10:04:03;;;;;;;4.10;3.70;;;25.00;99.90;;;;;;5020361;28;20570;-62
2022/07/05 10:06:35;;;;;;;4.37;3.97;;;24.90;99.90;;;;;;5017402;28;20492;-63
2022/07/05 10:09:03;;;;;;;4.83;4.43;;;25.80;99.90;;;;;;5021152;28;20472;-63
2022/07/05 10:11:32;;;;;;;4.70;3.50;;;24.40;99.90;;;;;;5019786;28;20551;-63
2022/07/05 10:14:07;;;;;;;4.00;3.70;;;24.40;99.90;;;;;;5019924;28;20554;-63
2022/07/05 10:16:34;;;;;;;4.33;4.03;;;23.50;99.90;;;;;;5020408;28;20477;-63
2022/07/05 10:19:01;;;;;;;6.37;4.60;;;23.30;99.90;;;;;;5019597;28;20466;-63
2022/07/05 10:21:29;;;;;;;6.60;4.83;;;23.80;99.90;;;;;;5017201;28;20526;-63
2022/07/05 10:24:00;;;;;;;5.67;4.20;;;25.10;99.90;;;;;;5020394;28;20478;-63
2022/07/05 10:26:33;;;;;;;4.63;4.23;;;25.70;99.90;;;;;;5020097;28;20563;-63
2022/07/05 10:29:06;;;;;;;5.73;4.47;;;26.50;99.90;;;;;;5019445;28;20472;-63
2022/07/05 10:31:33;;;;;;;5.90;4.43;;;27.30;99.90;;;;;;5017852;28;20912;-61
2022/07/05 10:34:07;;;;;;;4.23;3.83;;;27.50;99.90;;;;;;5018990;28;20504;-64
2022/07/05 10:36:37;;;;;;;6.80;3.80;;;27.40;99.90;;;;;;5019851;28;20903;-63
2022/07/05 10:39:06;;;;;;;2.80;2.60;;;27.90;99.90;;;;;;5019164;28;20468;-63
2022/07/05 10:41:34;;;;;;;4.53;3.70;;;28.10;99.90;;;;;;5018776;28;20506;-63
2022/07/05 10:44:03;;;;;;;4.37;3.30;;;28.40;99.90;;;;;;5019297;28;20460;-62
2022/07/05 10:46:37;;;;;;;9.73;3.10;;;26.80;99.90;;;;;;5018968;28;21034;-63
2022/07/05 10:49:17;;;;;;;8.10;3.43;;;25.40;99.90;;;;;;5019188;28;20463;-63
2022/07/05 10:51:46;;;;;;;4.57;3.07;;;25.10;99.90;;;;;;5018574;28;20472;-64
2022/07/05 10:54:16;;;;;;;3.93;3.57;;;24.90;99.90;;;;;;5018183;28;20523;-63
2022/07/05 10:57:22;;;;;;;4.63;3.20;;;25.20;99.90;;;;;;5018080;28;20495;-63
2022/07/05 11:00:22;;;;;;;4.90;3.17;;;26.50;99.90;;;;;;5022617;28;20475;-63
2022/07/05 11:03:28;;;;;;;4.10;2.60;;;26.00;99.90;;;;;;5019754;28;20554;-64
2022/07/05 11:05:57;;;;;;;5.33;2.97;;;27.10;99.90;;;;;;5037193;28;20463;-64
2022/07/05 11:08:24;;;;;;;3.43;3.13;;;26.70;99.90;;;;;;5022952;28;20936;-64
2022/07/05 11:11:12;;;;;;;3.37;3.07;;;26.50;99.90;;;;;;5016625;28;20471;-63
2022/07/05 11:13:43;;;;;;;3.97;3.57;;;26.70;99.90;;;;;;5030809;28;20737;-63
2022/07/05 11:16:35;;;;;;;3.10;2.90;;;25.90;99.90;;;;;;5025935;28;20455;-63
2022/07/05 11:19:07;;;;;;;5.00;2.73;;;24.70;99.90;;;;;;5015838;28;20885;-63
2022/07/05 11:21:35;;;;;;;4.77;3.20;;;25.40;99.90;;;;;;5027540;28;20891;-63
2022/07/05 11:24:25;;;;;;;4.40;3.37;;;25.70;99.90;;;;;;5021809;28;20896;-63
2022/07/05 11:26:58;;;;;;;2.93;2.60;;;25.90;99.90;;;;;;5032060;28;20534;-63
2022/07/05 11:29:48;;;;;;;3.90;3.03;;;24.80;99.90;;;;;;5037866;28;20467;-63
2022/07/05 11:32:24;;;;;;;3.83;3.43;;;24.50;99.90;;;;;;5038054;28;20835;-63
2022/07/05 11:34:53;;;;;;;2.80;2.60;;;25.30;99.90;;;;;;5037748;28;20466;-63
2022/07/05 11:37:23;;;;;;;2.83;2.63;;;26.30;99.90;;;;;;5038097;28;20459;-63
2022/07/05 11:40:26;;;;;;;2.90;2.70;;;27.40;99.90;;;;;;5038439;28;20550;-63
2022/07/05 11:42:53;;;;;;;5.53;3.30;;;28.50;99.90;;;;;;5033984;28;20506;-64
2022/07/05 11:45:24;;;;;;;3.83;2.40;;;28.20;99.90;;;;;;5037564;28;20459;-63
2022/07/05 11:47:58;;;;;;;2.60;2.40;;;27.90;99.90;;;;;;5037756;28;20534;-63
2022/07/05 11:50:36;;;;;;;4.80;3.03;;;26.60;99.90;;;;;;5036419;28;20467;-62
2022/07/05 11:53:11;;;;;;;3.23;2.57;;;25.10;99.90;;;;;;5036823;28;20459;-63
2022/07/05 11:55:42;;;;;;;3.40;2.53;;;24.20;99.90;;;;;;5035630;28;20472;-62
2022/07/05 11:58:13;;;;;;;3.60;3.03;;;23.60;99.90;;;;;;5016668;28;20431;-63
2022/07/05 12:00:41;;;;;;;3.97;3.47;;;23.40;99.90;;;;;;5015107;28;20502;-63
2022/07/05 12:03:17;;;;;;;2.90;2.70;;;23.50;99.90;;;;;;5017110;28;20456;-63
2022/07/05 12:05:46;;;;;;;3.40;3.20;;;23.20;99.90;;;;;;5028833;28;20510;-63
2022/07/05 12:08:20;;;;;;;4.30;3.27;;;24.80;99.90;;;;;;5013101;28;20495;-64
2022/07/05 12:13:42;;;;;;;3.30;2.97;;;26.80;99.90;;;;;;5008057;28;20638;-64
2022/07/05 12:16:11;;;;;;;2.60;2.23;;;25.70;99.90;;;;;;5004285;28;20491;-64
2022/07/05 12:18:50;;;;;;;6.03;3.37;;;25.90;99.90;;;;;;4998785;28;20461;-63
2022/07/05 12:21:20;;;;;;;4.10;2.83;;;25.10;99.90;;;;;;5013505;28;20439;-62
2022/07/05 12:23:48;;;;;;;4.33;3.03;;;25.10;99.90;;;;;;5011797;28;20752;-62
2022/07/05 12:26:16;;;;;;;6.70;3.17;;;24.10;99.90;;;;;;5014326;28;20558;-63
2022/07/05 12:28:50;;;;;;;4.10;3.50;;;24.00;99.90;;;;;;5014114;28;20498;-62
2022/07/05 12:31:18;;;;;;;5.50;3.60;;;23.30;99.90;;;;;;5012115;28;20471;-62
2022/07/05 12:33:52;;;;;;;3.40;3.10;;;23.20;99.90;;;;;;5016715;28;20479;-63
2022/07/05 12:36:23;;;;;;;5.53;3.47;;;23.20;99.90;;;;;;5017590;28;20475;-63
2022/07/05 12:38:50;;;;;;;3.30;3.00;;;24.30;99.90;;;;;;5015074;28;20472;-63
2022/07/05 12:41:23;;;;;;;4.10;3.60;;;25.60;99.90;;;;;;5013140;28;20471;-62
2022/07/05 12:44:03;;;;;;;3.57;2.70;;;25.80;99.90;;;;;;5014519;28;20486;-64
2022/07/05 12:46:38;;;;;;;4.60;3.53;;;26.70;99.90;;;;;;5013680;28;20466;-63
2022/07/05 12:49:10;;;;;;;4.07;2.80;;;27.00;99.90;;;;;;5028516;28;20942;-63
2022/07/05 12:51:42;;;;;;;4.47;3.30;;;27.30;99.90;;;;;;5027166;28;20554;-63
2022/07/05 13:00:00;;;;;;;4.03;3.40;;;26.00;99.90;;;;;;4990294;28;20586;-63
2022/07/05 13:02:38;;;;;;;3.47;3.17;;;26.40;99.90;;;;;;5016931;28;20551;-63
2022/07/05 13:05:10;;;;;;;4.47;3.20;;;27.60;99.90;;;;;;5012842;28;20559;-63
2022/07/05 13:07:46;;;;;;;4.10;3.20;;;27.70;99.90;;;;;;5000412;28;20550;-63
2022/07/05 13:10:18;;;;;;;4.63;3.00;;;27.40;99.90;;;;;;5017120;28;20471;-63
2022/07/05 13:12:47;;;;;;;3.47;3.00;;;26.20;99.90;;;;;;5021455;28;20503;-63
2022/07/05 13:15:15;;;;;;;3.70;3.30;;;26.20;99.90;;;;;;5008947;28;20567;-62
2022/07/05 13:17:45;;;;;;;3.20;2.90;;;26.00;99.90;;;;;;5017354;28;20472;-62
2022/07/05 13:20:23;;;;;;;4.13;2.90;;;25.80;99.90;;;;;;5018866;28;20460;-62